Aviation Digital Data Service (ADDS)

Output produced by METARs form (0822 UTC 09 April 2020)
found at http://aviationweather.gov/metar/data/
 
TAF EPDA 090800Z 0909/0918 28010KT CAVOK 
     TEMPO 0910/0915 SCT020